TimeMDT,TemperatureF,Dew PointF,Humidity,Sea Level PressureIn,VisibilityMPH,Wind Direction,Wind SpeedMPH,Gust SpeedMPH,PrecipitationIn,Events,Conditions,WindDirDegrees,DateUTC
12:56 AM,43.9,37.9,80,30.18,10.0,SSE,6.9,-,N/A,,Mostly Cloudy,150,2012-10-14 06:56:00
1:56 AM,45.0,37.9,76,30.19,10.0,SSE,9.2,-,N/A,,Overcast,160,2012-10-14 07:56:00
2:56 AM,41.9,36.0,79,30.20,10.0,South,10.4,-,N/A,,Partly Cloudy,170,2012-10-14 08:56:00
3:56 AM,37.9,34.0,86,30.20,10.0,SSE,8.1,-,N/A,,Clear,150,2012-10-14 09:56:00
4:56 AM,36.9,34.0,89,30.23,10.0,SSE,5.8,-,N/A,,Clear,160,2012-10-14 10:56:00
5:56 AM,31.1,29.1,92,30.29,10.0,East,4.6,-,N/A,,Clear,100,2012-10-14 11:56:00
6:56 AM,30.0,28.0,92,30.30,10.0,SSE,6.9,-,N/A,,Clear,160,2012-10-14 12:56:00
7:56 AM,31.1,30.0,96,30.32,10.0,East,5.8,-,N/A,,Clear,100,2012-10-14 13:56:00
8:56 AM,38.8,36.0,89,30.31,10.0,ENE,4.6,-,N/A,,Clear,60,2012-10-14 14:56:00
9:56 AM,46.9,36.9,68,30.28,10.0,SSW,9.2,-,N/A,,Clear,200,2012-10-14 15:56:00
10:56 AM,52.0,34.9,52,30.24,10.0,SSW,9.2,-,N/A,,Clear,210,2012-10-14 16:56:00
11:56 AM,54.9,34.0,45,30.22,10.0,SW,8.1,-,N/A,,Clear,220,2012-10-14 17:56:00
12:56 PM,56.8,34.9,44,30.21,10.0,Variable,3.5,-,N/A,,Mostly Cloudy,0,2012-10-14 18:56:00
1:56 PM,57.9,32.9,39,30.18,10.0,WSW,8.1,-,N/A,,Scattered Clouds,240,2012-10-14 19:56:00
2:56 PM,59.0,32.0,36,30.17,10.0,Variable,4.6,-,N/A,,Partly Cloudy,0,2012-10-14 20:56:00
3:56 PM,61.0,32.0,34,30.16,10.0,Calm,Calm,-,N/A,,Clear,0,2012-10-14 21:56:00
4:56 PM,59.9,32.0,35,30.14,10.0,WSW,3.5,-,N/A,,Clear,250,2012-10-14 22:56:00
5:56 PM,59.0,32.0,36,30.17,10.0,NW,4.6,-,N/A,,Clear,310,2012-10-14 23:56:00
6:56 PM,50.9,31.1,47,30.19,10.0,North,3.5,-,N/A,,Clear,360,2012-10-15 00:56:00
7:56 PM,45.9,32.0,58,30.21,10.0,East,8.1,-,N/A,,Clear,80,2012-10-15 01:56:00
8:56 PM,45.0,32.0,60,30.19,10.0,East,8.1,-,0.00,,Clear,90,2012-10-15 02:56:00
9:56 PM,41.9,31.1,66,30.14,10.0,ESE,11.5,-,N/A,,Clear,110,2012-10-15 03:56:00
10:56 PM,43.9,34.0,68,30.11,10.0,South,9.2,-,N/A,,Clear,170,2012-10-15 04:56:00
11:56 PM,45.9,34.9,66,30.08,10.0,SSE,10.4,-,N/A,,Clear,160,2012-10-15 05:56:00